createdAt,value
2018-11-20T00:00:06.559Z,-0.90
2018-11-20T00:03:13.788Z,-1.00
2018-11-20T00:06:21.016Z,-0.60
2018-11-20T00:09:28.511Z,-1.00
2018-11-20T00:12:35.748Z,-1.10
2018-11-20T00:15:43.260Z,-1.00
2018-11-20T00:18:50.504Z,-1.10
2018-11-20T00:21:57.748Z,-1.10
2018-11-20T00:24:55.363Z,-1.10
2018-11-20T00:28:02.584Z,-1.00
2018-11-20T00:31:10.064Z,-0.90
2018-11-20T00:34:06.856Z,-1.00
2018-11-20T00:37:14.369Z,-1.10
2018-11-20T00:40:21.857Z,-1.00
2018-11-20T00:43:29.089Z,-1.10
2018-11-20T00:46:36.598Z,-1.00
2018-11-20T00:49:44.074Z,-0.60
2018-11-20T00:52:51.310Z,-1.10
2018-11-20T00:56:17.499Z,-1.00
2018-11-20T00:59:24.836Z,-1.00
2018-11-20T01:02:32.309Z,-1.00
2018-11-20T01:05:31.025Z,-0.90
2018-11-20T01:08:38.190Z,-1.00
2018-11-20T01:11:45.687Z,-1.00
2018-11-20T01:14:40.493Z,-1.00
2018-11-20T01:17:47.719Z,-1.00
2018-11-20T01:20:55.194Z,-0.90
2018-11-20T01:24:02.705Z,-1.00
2018-11-20T01:27:10.199Z,-1.00
2018-11-20T01:30:17.681Z,-0.90
2018-11-20T01:33:25.167Z,-1.00
2018-11-20T01:36:32.513Z,-0.90
2018-11-20T01:39:39.744Z,-1.00
2018-11-20T01:42:46.973Z,-0.70
2018-11-20T01:45:54.471Z,-0.90
2018-11-20T01:49:01.703Z,-1.00
2018-11-20T01:51:57.374Z,-0.50
2018-11-20T01:55:04.621Z,-0.80
2018-11-20T01:58:12.118Z,-0.90
2018-11-20T02:01:19.357Z,-0.80
2018-11-20T02:04:26.820Z,-0.90
2018-11-20T02:07:35.187Z,-0.90
2018-11-20T02:10:42.413Z,-0.80
2018-11-20T02:14:08.604Z,-0.40
2018-11-20T02:17:14.947Z,-0.70
2018-11-20T02:20:22.432Z,-0.30
2018-11-20T02:23:29.646Z,-0.60
2018-11-20T02:26:37.144Z,-0.70
2018-11-20T02:29:37.322Z,-0.70
2018-11-20T02:32:44.549Z,-0.70
2018-11-20T02:35:51.772Z,-0.70
2018-11-20T02:38:58.987Z,-0.60
2018-11-20T02:42:06.205Z,-0.60
2018-11-20T02:45:13.692Z,-0.70
2018-11-20T02:48:17.570Z,-0.70
2018-11-20T02:51:24.861Z,-0.60
2018-11-20T02:54:32.034Z,-0.60
2018-11-20T02:57:39.243Z,-0.50
2018-11-20T03:00:46.742Z,-0.60
2018-11-20T03:03:54.333Z,-0.50
2018-11-20T03:07:01.473Z,-0.20
2018-11-20T03:10:08.971Z,-0.20
2018-11-20T03:13:16.213Z,-0.40
2018-11-20T03:16:17.835Z,-0.30
2018-11-20T03:19:25.412Z,-0.40
2018-11-20T03:22:32.918Z,-0.30
2018-11-20T03:25:59.122Z,-0.30
2018-11-20T03:29:17.772Z,-0.30
2018-11-20T03:32:25.011Z,-0.20
2018-11-20T03:35:32.237Z,-0.20
2018-11-20T03:38:20.853Z,-0.30
2018-11-20T03:41:28.082Z,-0.20
2018-11-20T03:44:35.307Z,-0.20
2018-11-20T03:47:42.565Z,-0.30
2018-11-20T03:50:50.045Z,-0.30
2018-11-20T03:53:57.282Z,-0.30
2018-11-20T03:56:45.522Z,-0.20
2018-11-20T03:59:53.041Z,-0.10
2018-11-20T04:03:00.278Z,-0.10
2018-11-20T04:06:07.581Z,-0.10
2018-11-20T04:12:21.753Z,-0.10
2018-11-20T04:15:29.240Z,0.00
2018-11-20T04:18:36.727Z,0.00
2018-11-20T04:21:43.969Z,0.10
2018-11-20T04:24:50.406Z,0.20
2018-11-20T04:27:48.194Z,0.10
2018-11-20T04:31:14.389Z,0.10
2018-11-20T04:34:21.876Z,0.20
2018-11-20T04:37:29.092Z,0.60
2018-11-20T04:40:36.567Z,0.50
2018-11-20T04:43:43.796Z,0.10
2018-11-20T04:46:51.282Z,0.10
2018-11-20T04:49:46.437Z,0.20
2018-11-20T04:52:42.519Z,0.20
2018-11-20T04:55:49.743Z,0.20
2018-11-20T04:58:56.963Z,0.20
2018-11-20T05:02:04.203Z,0.20
2018-11-20T05:05:03.100Z,0.00
2018-11-20T05:08:10.320Z,0.20
2018-11-20T05:11:17.550Z,0.20
2018-11-20T05:14:24.785Z,0.20
2018-11-20T05:17:32.021Z,0.20
2018-11-20T05:20:39.514Z,0.20
2018-11-20T05:23:47.017Z,0.30
2018-11-20T05:26:54.525Z,0.20
2018-11-20T05:29:54.173Z,0.20
2018-11-20T05:33:01.411Z,0.20
2018-11-20T05:36:08.920Z,0.20
2018-11-20T05:39:09.281Z,0.30
2018-11-20T05:42:16.507Z,0.30
2018-11-20T05:45:24.033Z,0.30
2018-11-20T05:48:31.531Z,0.70
2018-11-20T05:51:38.748Z,0.30
2018-11-20T05:57:58.982Z,0.30
2018-11-20T06:01:08.788Z,0.30
2018-11-20T06:04:16.012Z,0.30
2018-11-20T06:07:23.496Z,0.20
2018-11-20T06:10:31.049Z,0.40
2018-11-20T06:13:19.685Z,0.40
2018-11-20T06:16:27.185Z,0.40
2018-11-20T06:22:31.431Z,0.50
2018-11-20T06:25:38.888Z,0.50
2018-11-20T06:28:46.241Z,0.50
2018-11-20T06:31:54.225Z,0.50
2018-11-20T06:35:02.337Z,0.70
2018-11-20T06:38:09.482Z,0.60
2018-11-20T06:41:16.851Z,0.60
2018-11-20T06:44:25.050Z,0.70
2018-11-20T06:47:32.689Z,0.70
2018-11-20T06:50:40.154Z,0.70
2018-11-20T06:53:47.631Z,1.30
2018-11-20T06:56:55.100Z,0.80
2018-11-20T07:00:02.401Z,0.80
2018-11-20T07:03:09.599Z,1.00
2018-11-20T07:06:16.933Z,0.80
2018-11-20T07:09:24.901Z,1.00
2018-11-20T07:12:32.125Z,1.00
2018-11-20T07:15:39.526Z,1.20
2018-11-20T07:18:46.658Z,1.00
2018-11-20T07:21:54.144Z,1.00
2018-11-20T07:25:01.629Z,1.20
2018-11-20T07:28:02.838Z,1.10
2018-11-20T07:31:10.362Z,1.10
2018-11-20T07:34:17.531Z,1.20
2018-11-20T07:37:25.025Z,1.20
2018-11-20T07:40:59.496Z,1.20
2018-11-20T07:43:59.422Z,1.50
2018-11-20T07:49:45.099Z,1.90
2018-11-20T07:52:46.546Z,1.40
2018-11-20T07:58:27.812Z,1.60
2018-11-20T08:04:11.188Z,1.50
2018-11-20T08:10:16.251Z,1.40
2018-11-20T08:13:11.378Z,1.40
2018-11-20T08:15:52.391Z,1.40
2018-11-20T08:21:54.812Z,1.80
2018-11-20T08:27:37.517Z,1.70
2018-11-20T08:33:20.282Z,2.10
2018-11-20T08:35:56.866Z,1.90
2018-11-20T08:39:03.036Z,2.10
2018-11-20T08:41:50.769Z,2.10
2018-11-20T08:44:57.604Z,2.00
2018-11-20T08:48:00.503Z,1.90
2018-11-20T08:51:07.540Z,1.90
2018-11-20T08:54:14.352Z,2.10
2018-11-20T08:57:21.435Z,2.10
2018-11-20T09:00:28.254Z,2.30
2018-11-20T09:03:35.310Z,2.20
2018-11-20T09:06:42.129Z,2.20
2018-11-20T09:09:49.199Z,2.30
2018-11-20T09:12:56.292Z,2.20
2018-11-20T09:16:06.369Z,2.30
2018-11-20T09:21:58.297Z,2.50
2018-11-20T09:25:05.102Z,2.60
2018-11-20T09:27:52.528Z,2.50
2018-11-20T09:30:59.321Z,2.50
2018-11-20T09:34:07.017Z,2.60
2018-11-20T09:37:13.675Z,2.60
2018-11-20T09:40:39.859Z,2.80
2018-11-20T09:43:49.363Z,2.90
2018-11-20T09:46:56.186Z,3.00
2018-11-20T09:50:03.258Z,2.90
2018-11-20T09:53:10.074Z,3.10
2018-11-20T09:55:57.490Z,3.20
2018-11-20T09:59:04.349Z,3.10
2018-11-20T10:02:11.205Z,3.20
2018-11-20T10:05:18.014Z,3.20
2018-11-20T10:08:24.850Z,3.30
2018-11-20T10:11:31.700Z,3.30
2018-11-20T10:14:38.815Z,3.40
2018-11-20T10:17:45.631Z,3.40
2018-11-20T10:20:52.596Z,3.60
2018-11-20T10:23:59.351Z,3.70
2018-11-20T10:27:06.474Z,3.70
2018-11-20T10:30:13.473Z,4.20
2018-11-20T10:33:20.736Z,3.80
2018-11-20T10:36:27.800Z,3.90
2018-11-20T10:39:15.304Z,3.80
2018-11-20T10:42:22.380Z,3.80
2018-11-20T10:45:10.316Z,3.90
2018-11-20T10:48:17.197Z,3.90
2018-11-20T10:51:04.637Z,4.00
2018-11-20T10:57:23.473Z,4.00
2018-11-20T11:00:30.308Z,4.00
2018-11-20T11:06:31.097Z,4.10
2018-11-20T11:09:21.670Z,4.20
2018-11-20T11:12:11.833Z,4.20
2018-11-20T11:15:18.594Z,4.10
2018-11-20T11:18:14.684Z,4.20
2018-11-20T11:21:21.780Z,4.20
2018-11-20T11:24:28.596Z,4.20
2018-11-20T11:27:35.856Z,4.30
2018-11-20T11:30:43.472Z,4.50
2018-11-20T11:33:50.304Z,4.50
2018-11-20T11:36:57.107Z,4.50
2018-11-20T11:40:04.311Z,4.60
2018-11-20T11:43:11.122Z,5.20
2018-11-20T11:46:17.941Z,4.70
2018-11-20T11:49:25.022Z,4.80
2018-11-20T11:52:12.415Z,4.80
2018-11-20T11:55:19.512Z,4.80
2018-11-20T11:58:09.838Z,4.70
2018-11-20T12:00:56.253Z,4.70
2018-11-20T12:03:43.943Z,4.70
2018-11-20T12:06:37.858Z,4.90
2018-11-20T12:09:27.047Z,4.90
2018-11-20T12:12:12.491Z,5.00
2018-11-20T12:14:58.281Z,5.10
2018-11-20T12:17:47.081Z,5.00
2018-11-20T12:20:33.366Z,5.00
2018-11-20T12:23:23.556Z,5.00
2018-11-20T12:26:11.255Z,5.10
2018-11-20T12:28:57.950Z,5.20
2018-11-20T12:31:33.371Z,5.20
2018-11-20T12:34:28.581Z,5.20
2018-11-20T12:37:07.966Z,5.20
2018-11-20T12:40:03.827Z,5.20
2018-11-20T12:42:51.785Z,5.30
2018-11-20T12:45:53.877Z,5.30
2018-11-20T12:48:45.828Z,5.30
2018-11-20T12:51:28.278Z,5.40
2018-11-20T12:54:15.117Z,5.40
2018-11-20T12:57:16.276Z,5.50
2018-11-20T13:00:02.767Z,5.50
2018-11-20T13:02:56.570Z,5.50
2018-11-20T13:05:48.430Z,5.50
2018-11-20T13:08:34.793Z,5.50
2018-11-20T13:11:22.267Z,5.50
2018-11-20T13:14:08.024Z,5.50
2018-11-20T13:16:52.961Z,5.60
2018-11-20T13:19:40.898Z,5.70
2018-11-20T13:22:37.437Z,5.70
2018-11-20T13:25:28.238Z,5.60
2018-11-20T13:28:14.608Z,5.70
2018-11-20T13:31:10.838Z,5.80
2018-11-20T13:33:58.592Z,5.80
2018-11-20T13:36:40.378Z,5.80
2018-11-20T13:39:24.643Z,5.70
2018-11-20T13:42:19.449Z,5.60
2018-11-20T13:45:08.563Z,5.70
2018-11-20T13:48:14.027Z,5.70
2018-11-20T13:50:57.178Z,5.70
2018-11-20T13:53:43.516Z,5.70
2018-11-20T13:56:29.885Z,5.80
2018-11-20T13:59:35.905Z,5.80
2018-11-20T14:02:21.976Z,5.80
2018-11-20T14:05:27.648Z,5.80
2018-11-20T14:08:25.431Z,5.80
2018-11-20T14:11:12.334Z,5.70
2018-11-20T14:14:04.111Z,5.70
2018-11-20T14:16:50.710Z,5.70
2018-11-20T14:19:36.883Z,5.70
2018-11-20T14:22:23.034Z,5.60
2018-11-20T14:25:10.016Z,5.60
2018-11-20T14:27:57.294Z,5.60
2018-11-20T14:30:56.065Z,5.60
2018-11-20T14:33:37.073Z,5.60
2018-11-20T14:36:23.877Z,5.60
2018-11-20T14:39:10.274Z,5.50
2018-11-20T14:41:53.887Z,5.50
2018-11-20T14:44:47.482Z,5.40
2018-11-20T14:47:33.137Z,5.40
2018-11-20T14:50:25.852Z,5.40
2018-11-20T14:53:22.221Z,5.40
2018-11-20T14:56:13.829Z,5.30
2018-11-20T14:58:59.934Z,5.30
2018-11-20T15:02:05.693Z,5.30
2018-11-20T15:05:08.908Z,5.30
2018-11-20T15:07:59.174Z,5.30
2018-11-20T15:10:48.550Z,5.20
2018-11-20T15:13:34.406Z,5.10
2018-11-20T15:16:13.387Z,5.00
2018-11-20T15:18:48.343Z,5.00
2018-11-20T15:21:33.809Z,4.90
2018-11-20T15:24:30.231Z,4.70
2018-11-20T15:27:20.593Z,4.70
2018-11-20T15:30:07.130Z,4.60
2018-11-20T15:32:58.784Z,4.60
2018-11-20T15:35:42.629Z,4.50
2018-11-20T15:38:42.026Z,4.40
2018-11-20T15:41:20.707Z,4.20
2018-11-20T15:44:16.457Z,4.10
2018-11-20T15:47:04.170Z,4.10
2018-11-20T15:50:00.428Z,4.00
2018-11-20T15:52:46.192Z,3.90
2018-11-20T15:55:34.729Z,3.90
2018-11-20T15:58:20.807Z,3.80
2018-11-20T16:01:26.752Z,3.80
2018-11-20T16:04:12.850Z,3.70
2018-11-20T16:07:09.841Z,3.60
2018-11-20T16:09:56.695Z,3.60
2018-11-20T16:12:52.698Z,3.60
2018-11-20T16:15:43.102Z,3.50
2018-11-20T16:18:29.446Z,3.40
2018-11-20T16:21:19.705Z,3.30
2018-11-20T16:24:13.280Z,3.30
2018-11-20T16:27:00.826Z,3.20
2018-11-20T16:29:47.404Z,3.10
2018-11-20T16:32:33.281Z,3.10
2018-11-20T16:35:27.006Z,3.10
2018-11-20T16:38:14.465Z,3.00
2018-11-20T16:41:00.223Z,3.00
2018-11-20T16:43:47.371Z,2.90
2018-11-20T16:46:44.102Z,2.80
2018-11-20T16:49:30.358Z,2.80
2018-11-20T16:52:23.619Z,2.70
2018-11-20T16:55:09.457Z,2.70
2018-11-20T16:57:56.157Z,2.60
2018-11-20T17:00:42.493Z,2.60
2018-11-20T17:03:32.157Z,2.50
2018-11-20T17:06:18.571Z,2.50
2018-11-20T17:09:09.431Z,2.50
2018-11-20T17:12:09.021Z,2.50
2018-11-20T17:14:59.360Z,2.50
2018-11-20T17:17:58.979Z,2.50
2018-11-20T17:20:55.456Z,2.50
2018-11-20T17:23:38.210Z,2.50
2018-11-20T17:26:34.722Z,2.50
2018-11-20T17:29:21.026Z,2.40
2018-11-20T17:32:08.893Z,2.30
2018-11-20T17:34:56.809Z,2.30
2018-11-20T17:37:53.168Z,2.20
2018-11-20T17:40:46.647Z,2.20
2018-11-20T17:43:32.814Z,2.20
2018-11-20T17:46:11.185Z,2.10
2018-11-20T17:48:50.897Z,2.00
2018-11-20T17:51:47.616Z,2.10
2018-11-20T17:54:35.110Z,2.00
2018-11-20T17:57:25.668Z,2.00
2018-11-20T18:00:04.654Z,1.90
2018-11-20T18:02:48.246Z,1.90
2018-11-20T18:05:45.318Z,1.90
2018-11-20T18:08:32.774Z,1.90
2018-11-20T18:11:32.674Z,1.90
2018-11-20T18:14:23.403Z,1.80
2018-11-20T18:17:09.029Z,1.80
2018-11-20T18:19:50.640Z,1.80
2018-11-20T18:22:45.643Z,1.70
2018-11-20T18:25:31.709Z,1.70
2018-11-20T18:28:34.023Z,1.60
2018-11-20T18:31:19.968Z,1.60
2018-11-20T18:34:16.732Z,1.60
2018-11-20T18:37:02.680Z,1.60
2018-11-20T18:39:42.702Z,1.50
2018-11-20T18:42:28.948Z,1.40
2018-11-20T18:45:13.201Z,1.30
2018-11-20T18:48:09.829Z,1.30
2018-11-20T18:50:46.338Z,1.30
2018-11-20T18:53:32.368Z,1.30
2018-11-20T18:56:18.460Z,1.20
2018-11-20T18:59:11.506Z,1.20
2018-11-20T19:01:59.222Z,1.20
2018-11-20T19:04:46.977Z,1.20
2018-11-20T19:07:25.463Z,1.20
2018-11-20T19:10:15.785Z,1.20
2018-11-20T19:13:02.253Z,1.20
2018-11-20T19:15:50.360Z,1.10
2018-11-20T19:18:43.400Z,1.00
2018-11-20T19:21:41.446Z,0.90
2018-11-20T19:24:31.953Z,0.70
2018-11-20T19:27:22.683Z,0.60
2018-11-20T19:29:58.508Z,0.60
2018-11-20T19:32:57.837Z,0.60
2018-11-20T19:35:57.938Z,0.60
2018-11-20T19:38:37.762Z,0.60
2018-11-20T19:41:31.153Z,0.70
2018-11-20T19:44:27.658Z,0.70
2018-11-20T19:47:31.070Z,0.70
2018-11-20T19:50:17.665Z,0.70
2018-11-20T19:53:11.567Z,0.60
2018-11-20T19:55:58.041Z,0.50
2018-11-20T19:58:56.060Z,0.50
2018-11-20T20:01:44.410Z,0.60
2018-11-20T20:04:41.486Z,0.50
2018-11-20T20:07:32.451Z,0.50
2018-11-20T20:10:19.847Z,0.50
2018-11-20T20:12:55.403Z,0.50
2018-11-20T20:15:58.629Z,0.50
2018-11-20T20:18:52.450Z,0.60
2018-11-20T20:21:58.649Z,0.60
2018-11-20T20:24:54.413Z,0.60
2018-11-20T20:28:00.530Z,0.40
2018-11-20T20:30:51.967Z,0.20
2018-11-20T20:33:58.058Z,0.10
2018-11-20T20:36:48.998Z,0.10
2018-11-20T20:39:35.599Z,0.20
2018-11-20T20:42:22.131Z,0.20
2018-11-20T20:45:22.847Z,0.20
2018-11-20T20:48:09.367Z,0.20
2018-11-20T20:50:57.434Z,0.20
2018-11-20T20:53:51.017Z,0.20
2018-11-20T20:56:41.095Z,0.20
2018-11-20T20:59:33.369Z,0.20
2018-11-20T21:02:31.641Z,0.20
2018-11-20T21:05:21.511Z,0.30
2018-11-20T21:08:08.335Z,0.20
2018-11-20T21:10:59.440Z,0.10
2018-11-20T21:13:46.030Z,0.10
2018-11-20T21:16:42.965Z,0.10
2018-11-20T21:19:37.341Z,0.10
2018-11-20T21:22:23.670Z,0.10
2018-11-20T21:25:10.428Z,0.10
2018-11-20T21:28:04.349Z,0.10
2018-11-20T21:30:58.416Z,-0.10
2018-11-20T21:33:55.427Z,-0.20
2018-11-20T21:36:34.210Z,-0.30
2018-11-20T21:39:37.009Z,-0.30
2018-11-20T21:42:40.647Z,-0.40
2018-11-20T21:45:27.727Z,-0.30
2018-11-20T21:48:09.654Z,-0.40
2018-11-20T21:51:15.617Z,-0.50
2018-11-20T21:53:57.151Z,-0.50
2018-11-20T21:56:43.657Z,-0.50
2018-11-20T21:59:38.245Z,-0.50
2018-11-20T22:02:26.184Z,-0.40
2018-11-20T22:05:12.141Z,-0.40
2018-11-20T22:08:02.351Z,-0.50
2018-11-20T22:10:48.312Z,-0.50
2018-11-20T22:13:33.961Z,-0.60
2018-11-20T22:16:20.143Z,-0.50
2018-11-20T22:19:06.520Z,-0.40
2018-11-20T22:21:53.316Z,-0.40
2018-11-20T22:24:39.428Z,-0.40
2018-11-20T22:27:27.138Z,-0.30
2018-11-20T22:30:03.493Z,-0.30
2018-11-20T22:32:56.516Z,-0.30
2018-11-20T22:35:44.221Z,-0.30
2018-11-20T22:38:31.971Z,-0.30
2018-11-20T22:41:22.506Z,-0.30
2018-11-20T22:44:22.807Z,-0.30
2018-11-20T22:47:09.057Z,-0.30
2018-11-20T22:50:09.111Z,-0.30
2018-11-20T22:53:09.363Z,-0.30
2018-11-20T22:55:55.805Z,-0.30
2018-11-20T22:58:31.491Z,-0.30
2018-11-20T23:01:12.565Z,-0.30
2018-11-20T23:04:06.318Z,-0.40
2018-11-20T23:06:57.463Z,-0.40
2018-11-20T23:09:26.867Z,-0.60
2018-11-20T23:11:55.409Z,-0.70
2018-11-20T23:14:24.217Z,-0.70
2018-11-20T23:16:52.753Z,-0.60
2018-11-20T23:19:21.571Z,-0.60
2018-11-20T23:21:50.124Z,-0.70
2018-11-20T23:24:18.935Z,-0.80
2018-11-20T23:26:48.000Z,-0.70
2018-11-20T23:29:16.840Z,-0.60
2018-11-20T23:31:45.645Z,-0.50
2018-11-20T23:34:14.198Z,-0.40
2018-11-20T23:36:43.004Z,-0.30
2018-11-20T23:39:11.829Z,-0.20
2018-11-20T23:41:40.135Z,-0.20
2018-11-20T23:44:09.736Z,-0.40
2018-11-20T23:46:38.282Z,-0.50
2018-11-20T23:49:07.087Z,-0.50
2018-11-20T23:51:35.629Z,-0.60
2018-11-20T23:54:03.913Z,-0.60
2018-11-20T23:56:38.229Z,-0.60
2018-11-20T23:59:06.502Z,-0.70
